Time;durP1;ratioP1;P1;durP2;ratioP2;P2;SDS_P1;SDS_P2;PMS_P1;PMS_P2;Temp;Humidity;BMP_temperature;BMP_pressure;BME280_temperature;BME280_humidity;BME280_pressure;Samples;Min_cycle;Max_cycle;Signal;HPM_P1;HPM_P2
2023/12/30 00:01:37;;;;;;;11.07;2.00;;;;;;;;;;4908172;29;20601;-71
2023/12/30 00:04:03;;;;;;;6.07;1.60;;;;;;;;;;4923519;28;20082;-71
2023/12/30 00:06:29;;;;;;;6.65;2.08;;;;;;;;;;4929294;29;20051;-71
2023/12/30 00:08:55;;;;;;;11.25;1.77;;;;;;;;;;4924141;29;20527;-71
2023/12/30 00:11:22;;;;;;;5.78;1.92;;;;;;;;;;4923695;29;20411;-71
2023/12/30 00:13:48;;;;;;;12.30;1.80;;;;;;;;;;4915737;29;20051;-71
2023/12/30 00:16:14;;;;;;;6.32;1.70;;;;;;;;;;4925204;29;20126;-71
2023/12/30 00:18:40;;;;;;;5.93;1.45;;;;;;;;;;4928231;29;20054;-71
2023/12/30 00:21:06;;;;;;;8.50;2.17;;;;;;;;;;4927693;29;20129;-72
2023/12/30 00:23:33;;;;;;;3.80;2.35;;;;;;;;;;4928478;29;20130;-71
2023/12/30 00:25:59;;;;;;;6.88;1.88;;;;;;;;;;4916489;29;20047;-71
2023/12/30 00:28:25;;;;;;;4.53;1.75;;;;;;;;;;4929633;29;20047;-71
2023/12/30 00:30:53;;;;;;;6.32;1.85;;;;;;;;;;4916853;29;20057;-71
2023/12/30 00:33:19;;;;;;;12.00;2.75;;;;;;;;;;4924293;29;20066;-71
2023/12/30 00:35:45;;;;;;;7.20;1.98;;;;;;;;;;4933643;29;20422;-72
2023/12/30 00:38:11;;;;;;;5.45;1.85;;;;;;;;;;4946708;29;20379;-71
2023/12/30 00:40:37;;;;;;;9.32;2.60;;;;;;;;;;4945881;29;20502;-71
2023/12/30 00:43:03;;;;;;;8.18;1.95;;;;;;;;;;4912761;29;20039;-71
2023/12/30 00:45:29;;;;;;;11.20;1.38;;;;;;;;;;4926394;29;20046;-71
2023/12/30 00:47:56;;;;;;;11.23;3.03;;;;;;;;;;4929260;29;20084;-71
2023/12/30 00:50:22;;;;;;;6.20;2.28;;;;;;;;;;4943761;29;20491;-71
2023/12/30 00:52:48;;;;;;;8.02;3.45;;;;;;;;;;4931484;29;20050;-71
2023/12/30 00:55:14;;;;;;;6.43;2.25;;;;;;;;;;4921467;29;20050;-71
2023/12/30 00:57:40;;;;;;;7.57;1.98;;;;;;;;;;4924944;29;20047;-72
2023/12/30 01:00:06;;;;;;;5.47;1.90;;;;;;;;;;4928301;29;20412;-71
2023/12/30 01:02:32;;;;;;;10.57;1.77;;;;;;;;;;4923422;29;20781;-71
2023/12/30 01:04:58;;;;;;;8.38;1.85;;;;;;;;;;4924796;29;20045;-71
2023/12/30 01:07:25;;;;;;;11.85;2.25;;;;;;;;;;4905334;29;20051;-71
2023/12/30 01:09:51;;;;;;;9.85;1.70;;;;;;;;;;4946362;29;20121;-71
2023/12/30 01:12:17;;;;;;;6.32;1.80;;;;;;;;;;4926236;29;20055;-71
2023/12/30 01:14:43;;;;;;;11.25;1.98;;;;;;;;;;4944627;28;20859;-72
2023/12/30 01:17:09;;;;;;;10.20;1.65;;;;;;;;;;4929235;29;20126;-72
2023/12/30 01:19:35;;;;;;;14.07;2.22;;;;;;;;;;4938262;29;20053;-71
2023/12/30 01:22:01;;;;;;;10.32;1.88;;;;;;;;;;4946501;29;20122;-71
2023/12/30 01:24:27;;;;;;;7.35;2.08;;;;;;;;;;4927977;29;20090;-71
2023/12/30 01:26:54;;;;;;;9.65;2.03;;;;;;;;;;4927515;29;20047;-71
2023/12/30 01:29:20;;;;;;;7.93;1.83;;;;;;;;;;4941009;29;20054;-72
2023/12/30 01:31:46;;;;;;;9.27;2.30;;;;;;;;;;4912595;29;20411;-72
2023/12/30 01:34:12;;;;;;;7.40;2.00;;;;;;;;;;4929115;29;20098;-72
2023/12/30 01:36:38;;;;;;;9.70;2.08;;;;;;;;;;4943819;29;20048;-71
2023/12/30 01:39:04;;;;;;;8.48;2.22;;;;;;;;;;4912705;29;20054;-71
2023/12/30 01:41:31;;;;;;;9.40;1.75;;;;;;;;;;4917583;29;20051;-71
2023/12/30 01:43:57;;;;;;;7.38;2.25;;;;;;;;;;4924544;29;20047;-71
2023/12/30 01:46:23;;;;;;;7.63;1.60;;;;;;;;;;4912567;29;20062;-71
2023/12/30 01:48:52;;;;;;;10.50;1.85;;;;;;;;;;4924326;29;20077;-71
2023/12/30 01:51:18;;;;;;;4.45;1.98;;;;;;;;;;4937391;29;20049;-71
2023/12/30 01:53:44;;;;;;;5.95;2.10;;;;;;;;;;4925786;29;20173;-71
2023/12/30 01:56:10;;;;;;;9.77;2.03;;;;;;;;;;4928881;29;20051;-72
2023/12/30 01:58:37;;;;;;;6.65;1.67;;;;;;;;;;4939501;29;20047;-71
2023/12/30 02:01:03;;;;;;;7.38;2.30;;;;;;;;;;4939720;29;20055;-71
2023/12/30 02:03:29;;;;;;;9.13;2.25;;;;;;;;;;4927610;29;20047;-71
2023/12/30 02:05:56;;;;;;;11.65;2.25;;;;;;;;;;4936061;29;20220;-71
2023/12/30 02:08:22;;;;;;;11.68;2.00;;;;;;;;;;4942766;29;20122;-72
2023/12/30 02:10:48;;;;;;;7.18;1.67;;;;;;;;;;4943174;29;20053;-71
2023/12/30 02:13:14;;;;;;;6.55;2.08;;;;;;;;;;4937627;29;20055;-71
2023/12/30 02:15:40;;;;;;;10.05;1.85;;;;;;;;;;4937628;29;20073;-71
2023/12/30 02:18:06;;;;;;;7.15;1.65;;;;;;;;;;4927885;29;20555;-70
2023/12/30 02:20:33;;;;;;;6.90;1.83;;;;;;;;;;4923403;29;20653;-70
2023/12/30 02:22:59;;;;;;;10.63;2.15;;;;;;;;;;4940321;28;20048;-70
2023/12/30 02:25:25;;;;;;;6.78;1.55;;;;;;;;;;4943231;29;20059;-71
2023/12/30 02:27:51;;;;;;;12.55;2.25;;;;;;;;;;4946578;28;20044;-71
2023/12/30 02:30:17;;;;;;;9.93;2.20;;;;;;;;;;4948116;28;20442;-71
2023/12/30 02:32:43;;;;;;;8.93;3.60;;;;;;;;;;4950836;28;20538;-71
2023/12/30 02:35:09;;;;;;;5.88;1.60;;;;;;;;;;4951152;29;20051;-71
2023/12/30 02:37:35;;;;;;;11.98;2.30;;;;;;;;;;4946145;29;20047;-70
2023/12/30 02:40:02;;;;;;;6.32;1.63;;;;;;;;;;4943174;29;20051;-71
2023/12/30 02:42:28;;;;;;;6.28;2.28;;;;;;;;;;4941588;29;20051;-71
2023/12/30 02:44:54;;;;;;;5.40;2.10;;;;;;;;;;4941150;29;20118;-71
2023/12/30 02:47:20;;;;;;;6.82;1.90;;;;;;;;;;4949501;28;20039;-71
2023/12/30 02:49:46;;;;;;;7.78;2.17;;;;;;;;;;4925705;29;20039;-70
2023/12/30 02:52:12;;;;;;;7.50;1.83;;;;;;;;;;4948560;28;20064;-71
2023/12/30 02:54:38;;;;;;;7.57;2.72;;;;;;;;;;4945283;28;20046;-71
2023/12/30 02:57:05;;;;;;;10.23;2.53;;;;;;;;;;4945440;28;20067;-71
2023/12/30 02:59:32;;;;;;;7.47;2.10;;;;;;;;;;4949884;28;20051;-71
2023/12/30 03:01:58;;;;;;;6.68;2.70;;;;;;;;;;4933147;29;20758;-71
2023/12/30 03:04:24;;;;;;;11.82;2.10;;;;;;;;;;4940665;28;20122;-71
2023/12/30 03:06:50;;;;;;;13.00;2.15;;;;;;;;;;4943609;29;20047;-70
2023/12/30 03:09:16;;;;;;;11.93;2.30;;;;;;;;;;4945842;29;20049;-70
2023/12/30 03:11:42;;;;;;;6.93;1.73;;;;;;;;;;4946057;29;20558;-71
2023/12/30 03:14:08;;;;;;;11.85;1.98;;;;;;;;;;4945979;29;20051;-71
2023/12/30 03:16:35;;;;;;;12.85;2.72;;;;;;;;;;4947175;29;20054;-71
2023/12/30 03:19:01;;;;;;;10.70;2.25;;;;;;;;;;4948602;28;20138;-71
2023/12/30 03:21:27;;;;;;;9.75;2.00;;;;;;;;;;4931605;29;20051;-71
2023/12/30 03:23:54;;;;;;;16.25;2.63;;;;;;;;;;4943468;29;20143;-71
2023/12/30 03:26:21;;;;;;;10.98;2.40;;;;;;;;;;4931538;29;20122;-71
2023/12/30 03:28:47;;;;;;;15.75;2.28;;;;;;;;;;4938783;29;20056;-71
2023/12/30 03:31:20;;;;;;;15.00;3.33;;;;;;;;;;4939089;28;20059;-71
2023/12/30 03:33:46;;;;;;;13.95;2.15;;;;;;;;;;4941946;28;20770;-70
2023/12/30 03:36:12;;;;;;;10.90;2.22;;;;;;;;;;4949760;29;20050;-70
2023/12/30 03:38:38;;;;;;;6.40;1.88;;;;;;;;;;4945597;28;20066;-70
2023/12/30 03:41:04;;;;;;;9.15;2.10;;;;;;;;;;4957203;28;20103;-71
2023/12/30 03:43:30;;;;;;;8.85;2.10;;;;;;;;;;4942035;29;20062;-71
2023/12/30 03:45:56;;;;;;;14.05;2.28;;;;;;;;;;4942228;29;20047;-70
2023/12/30 03:48:22;;;;;;;5.05;2.45;;;;;;;;;;4939563;29;20099;-71
2023/12/30 03:50:48;;;;;;;7.03;2.03;;;;;;;;;;4946649;29;20487;-70
2023/12/30 03:53:14;;;;;;;9.60;2.15;;;;;;;;;;4928675;29;20082;-71
2023/12/30 03:55:40;;;;;;;5.35;1.90;;;;;;;;;;4936212;29;20661;-71
2023/12/30 03:58:06;;;;;;;7.20;2.17;;;;;;;;;;4939513;29;20130;-71
2023/12/30 04:00:32;;;;;;;9.68;2.25;;;;;;;;;;4942693;29;20093;-70
2023/12/30 04:02:58;;;;;;;10.35;2.35;;;;;;;;;;4927185;29;20079;-71
2023/12/30 04:05:24;;;;;;;11.75;2.35;;;;;;;;;;4937172;29;20066;-70
2023/12/30 04:07:50;;;;;;;10.93;2.28;;;;;;;;;;4942756;29;20126;-70
2023/12/30 04:10:17;;;;;;;7.13;2.05;;;;;;;;;;4945959;29;20083;-71
2023/12/30 04:12:43;;;;;;;15.68;2.40;;;;;;;;;;4946201;28;20078;-71
2023/12/30 04:15:10;;;;;;;14.02;3.00;;;;;;;;;;4946627;29;20047;-71
2023/12/30 04:17:36;;;;;;;13.48;2.40;;;;;;;;;;4935100;29;20074;-71
2023/12/30 04:20:02;;;;;;;11.88;2.13;;;;;;;;;;4941514;29;20047;-70
2023/12/30 04:22:28;;;;;;;6.45;1.60;;;;;;;;;;4939220;29;20126;-70
2023/12/30 04:24:56;;;;;;;13.07;3.08;;;;;;;;;;4923870;29;20035;-70
2023/12/30 04:27:22;;;;;;;9.93;2.08;;;;;;;;;;4942789;29;20074;-71
2023/12/30 04:29:48;;;;;;;9.02;3.00;;;;;;;;;;4941199;29;20222;-71
2023/12/30 04:32:14;;;;;;;9.30;2.13;;;;;;;;;;4945171;29;20055;-71
2023/12/30 04:34:40;;;;;;;10.35;1.75;;;;;;;;;;4928128;29;20062;-71
2023/12/30 04:37:06;;;;;;;14.30;2.92;;;;;;;;;;4943051;29;20134;-71
2023/12/30 04:39:32;;;;;;;10.05;2.15;;;;;;;;;;4937438;29;20628;-70
2023/12/30 04:41:59;;;;;;;8.25;2.17;;;;;;;;;;4941860;29;20157;-71
2023/12/30 04:44:25;;;;;;;9.07;2.40;;;;;;;;;;4929845;29;20499;-71
2023/12/30 04:46:53;;;;;;;14.73;2.47;;;;;;;;;;4933356;29;20043;-70
2023/12/30 04:49:19;;;;;;;6.95;1.95;;;;;;;;;;4941020;29;20043;-70
2023/12/30 04:51:45;;;;;;;10.25;4.22;;;;;;;;;;4935520;28;20078;-71
2023/12/30 04:54:11;;;;;;;12.52;2.38;;;;;;;;;;4940439;29;20086;-71
2023/12/30 04:56:37;;;;;;;10.30;3.20;;;;;;;;;;4937851;29;20075;-71
2023/12/30 04:59:03;;;;;;;10.07;2.35;;;;;;;;;;4940562;29;20475;-70
2023/12/30 05:01:32;;;;;;;6.43;2.10;;;;;;;;;;4944103;29;20053;-71
2023/12/30 05:03:58;;;;;;;9.95;2.80;;;;;;;;;;4944465;29;20123;-70
2023/12/30 05:06:24;;;;;;;13.90;2.35;;;;;;;;;;4944857;29;20051;-70
2023/12/30 05:08:51;;;;;;;6.07;2.28;;;;;;;;;;4941348;29;20710;-70
2023/12/30 05:11:17;;;;;;;10.90;2.88;;;;;;;;;;4927885;29;20043;-71
2023/12/30 05:13:44;;;;;;;13.93;2.65;;;;;;;;;;4941100;29;20053;-70
2023/12/30 05:16:10;;;;;;;15.23;2.33;;;;;;;;;;4938850;29;20079;-71
2023/12/30 05:18:36;;;;;;;8.38;1.75;;;;;;;;;;4939685;29;20047;-70
2023/12/30 05:21:02;;;;;;;13.07;2.30;;;;;;;;;;4936733;29;20156;-70
2023/12/30 05:23:28;;;;;;;11.95;2.35;;;;;;;;;;4942338;29;20047;-71
2023/12/30 05:25:54;;;;;;;11.27;3.03;;;;;;;;;;4927800;29;20049;-71
2023/12/30 05:28:20;;;;;;;12.73;2.58;;;;;;;;;;4944055;29;20043;-70
2023/12/30 05:30:46;;;;;;;7.22;2.13;;;;;;;;;;4937773;29;20051;-71
2023/12/30 05:33:12;;;;;;;9.43;2.42;;;;;;;;;;4930100;29;20199;-70
2023/12/30 05:35:40;;;;;;;8.60;2.45;;;;;;;;;;4932039;29;20647;-71
2023/12/30 05:38:06;;;;;;;12.88;2.83;;;;;;;;;;4939699;29;20090;-70
2023/12/30 05:40:32;;;;;;;8.65;2.20;;;;;;;;;;4943459;29;20051;-70
2023/12/30 05:42:58;;;;;;;11.70;2.05;;;;;;;;;;4927526;29;20047;-70
2023/12/30 05:45:24;;;;;;;14.18;2.30;;;;;;;;;;4943522;29;20094;-70
2023/12/30 05:47:50;;;;;;;11.32;2.15;;;;;;;;;;4944251;29;20047;-71
2023/12/30 05:50:16;;;;;;;7.20;1.67;;;;;;;;;;4938482;29;20082;-71
2023/12/30 05:52:42;;;;;;;11.45;2.83;;;;;;;;;;4925042;29;20075;-70
2023/12/30 05:55:08;;;;;;;12.20;2.30;;;;;;;;;;4943268;29;20517;-70
2023/12/30 05:57:34;;;;;;;11.40;2.17;;;;;;;;;;4939782;29;20503;-70
2023/12/30 06:00:00;;;;;;;10.57;2.47;;;;;;;;;;4928040;29;20479;-70
2023/12/30 06:02:26;;;;;;;16.25;2.83;;;;;;;;;;4938795;28;20054;-71
2023/12/30 06:04:52;;;;;;;17.88;2.78;;;;;;;;;;4927611;29;20051;-70
2023/12/30 06:07:19;;;;;;;11.20;2.13;;;;;;;;;;4943392;29;20058;-70
2023/12/30 06:09:45;;;;;;;10.57;2.83;;;;;;;;;;4942564;29;20055;-70
2023/12/30 06:12:11;;;;;;;8.68;2.38;;;;;;;;;;4939543;29;20090;-70
2023/12/30 06:14:37;;;;;;;15.73;2.92;;;;;;;;;;4944064;29;20043;-70
2023/12/30 06:17:03;;;;;;;9.10;2.20;;;;;;;;;;4925555;29;20494;-70
2023/12/30 06:19:29;;;;;;;16.27;2.25;;;;;;;;;;4942793;29;20802;-70
2023/12/30 06:21:56;;;;;;;13.70;2.70;;;;;;;;;;4940442;29;20134;-70
2023/12/30 06:24:26;;;;;;;8.20;2.00;;;;;;;;;;4943401;29;20051;-70
2023/12/30 06:26:52;;;;;;;12.98;2.88;;;;;;;;;;4938192;28;20407;-70
2023/12/30 06:29:19;;;;;;;9.73;2.22;;;;;;;;;;4944468;29;20669;-71
2023/12/30 06:31:45;;;;;;;11.73;2.30;;;;;;;;;;4939650;29;20062;-70
2023/12/30 06:34:11;;;;;;;10.60;1.70;;;;;;;;;;4937855;29;20085;-70
2023/12/30 06:36:37;;;;;;;15.27;2.30;;;;;;;;;;4926931;29;20153;-71
2023/12/30 06:39:05;;;;;;;15.50;2.85;;;;;;;;;;4942100;29;20043;-70
2023/12/30 06:41:31;;;;;;;16.80;3.85;;;;;;;;;;4944271;28;20774;-70
2023/12/30 06:43:57;;;;;;;5.88;2.08;;;;;;;;;;4941302;29;20051;-70
2023/12/30 06:46:23;;;;;;;12.43;2.97;;;;;;;;;;4942707;29;20059;-71
2023/12/30 06:48:49;;;;;;;5.13;1.92;;;;;;;;;;4942452;29;20051;-70
2023/12/30 06:51:15;;;;;;;12.15;2.30;;;;;;;;;;4932804;29;21104;-70
2023/12/30 06:53:41;;;;;;;13.38;3.03;;;;;;;;;;4931465;29;20051;-69
2023/12/30 06:56:08;;;;;;;12.50;3.33;;;;;;;;;;4937491;29;20058;-69
2023/12/30 06:58:34;;;;;;;11.68;3.60;;;;;;;;;;4940166;28;20065;-69
2023/12/30 07:01:00;;;;;;;11.45;3.38;;;;;;;;;;4936020;29;20043;-70
2023/12/30 07:03:26;;;;;;;10.70;2.78;;;;;;;;;;4935404;29;20370;-70
2023/12/30 07:05:53;;;;;;;12.70;2.50;;;;;;;;;;4936553;29;20050;-69
2023/12/30 07:08:19;;;;;;;8.02;1.80;;;;;;;;;;4937044;29;20605;-70
2023/12/30 07:10:45;;;;;;;13.15;2.75;;;;;;;;;;4935438;29;20047;-70
2023/12/30 07:13:11;;;;;;;8.90;2.25;;;;;;;;;;4929898;29;20530;-70
2023/12/30 07:15:37;;;;;;;9.65;2.35;;;;;;;;;;4937514;29;20051;-69
2023/12/30 07:18:03;;;;;;;15.23;2.75;;;;;;;;;;4941276;29;20494;-70
2023/12/30 07:20:29;;;;;;;16.38;2.67;;;;;;;;;;4933556;29;20176;-70
2023/12/30 07:22:56;;;;;;;11.43;2.53;;;;;;;;;;4939956;29;20525;-69
2023/12/30 07:25:22;;;;;;;9.38;2.50;;;;;;;;;;4943296;29;20585;-70
2023/12/30 07:27:51;;;;;;;9.27;2.42;;;;;;;;;;4939715;29;20407;-69
2023/12/30 07:30:17;;;;;;;12.52;2.33;;;;;;;;;;4926699;28;20087;-69
2023/12/30 07:32:43;;;;;;;8.88;2.10;;;;;;;;;;4926215;29;20051;-69
2023/12/30 07:35:09;;;;;;;13.02;2.72;;;;;;;;;;4921114;29;20094;-69
2023/12/30 07:37:35;;;;;;;12.00;2.35;;;;;;;;;;4944111;29;20090;-70
2023/12/30 07:40:03;;;;;;;12.30;2.17;;;;;;;;;;4923832;29;20065;-69
2023/12/30 07:42:29;;;;;;;12.52;2.45;;;;;;;;;;4923494;29;20046;-69
2023/12/30 07:44:55;;;;;;;14.07;2.05;;;;;;;;;;4923520;29;20055;-69
2023/12/30 07:47:21;;;;;;;15.25;2.55;;;;;;;;;;4944348;28;20047;-69
2023/12/30 07:49:47;;;;;;;8.73;1.73;;;;;;;;;;4901385;28;20169;-68
2023/12/30 07:52:14;;;;;;;9.65;2.17;;;;;;;;;;4933854;28;20055;-69
2023/12/30 07:54:40;;;;;;;12.73;2.63;;;;;;;;;;4913607;29;20058;-70
2023/12/30 07:57:06;;;;;;;13.57;2.53;;;;;;;;;;4920329;29;20788;-69
2023/12/30 07:59:32;;;;;;;12.07;3.05;;;;;;;;;;4938921;28;20047;-70
2023/12/30 08:01:58;;;;;;;13.50;2.60;;;;;;;;;;4917314;29;20043;-68
2023/12/30 08:04:24;;;;;;;9.60;2.55;;;;;;;;;;4921716;28;20055;-69
2023/12/30 08:06:50;;;;;;;14.80;2.10;;;;;;;;;;4920747;29;20075;-68
2023/12/30 08:09:17;;;;;;;9.00;2.10;;;;;;;;;;4922128;29;20067;-68
2023/12/30 08:11:43;;;;;;;8.68;2.47;;;;;;;;;;4914503;29;20826;-69
2023/12/30 08:14:09;;;;;;;16.33;2.70;;;;;;;;;;4921642;29;20058;-70
2023/12/30 08:16:36;;;;;;;12.93;2.35;;;;;;;;;;4922177;29;20050;-69
2023/12/30 08:19:05;;;;;;;12.93;2.17;;;;;;;;;;4935442;28;20079;-69
2023/12/30 08:21:31;;;;;;;15.95;2.67;;;;;;;;;;4933454;29;20035;-69
2023/12/30 08:23:58;;;;;;;12.25;2.83;;;;;;;;;;4920106;28;20047;-69
2023/12/30 08:26:25;;;;;;;7.22;2.22;;;;;;;;;;4921771;29;20047;-69
2023/12/30 08:28:51;;;;;;;11.00;2.17;;;;;;;;;;4921003;28;20039;-69
2023/12/30 08:31:18;;;;;;;8.85;2.20;;;;;;;;;;4941543;28;20208;-71
2023/12/30 08:33:45;;;;;;;11.15;2.58;;;;;;;;;;4941714;28;20574;-70
2023/12/30 08:36:11;;;;;;;7.65;2.13;;;;;;;;;;4923279;29;20767;-70
2023/12/30 08:38:37;;;;;;;7.88;2.42;;;;;;;;;;4913598;28;20059;-70
2023/12/30 08:41:03;;;;;;;9.52;1.90;;;;;;;;;;4918201;29;20150;-69
2023/12/30 08:43:29;;;;;;;12.88;2.40;;;;;;;;;;4922791;28;20219;-69
2023/12/30 08:45:55;;;;;;;5.90;2.00;;;;;;;;;;4943127;28;20590;-71
2023/12/30 08:48:21;;;;;;;9.25;2.78;;;;;;;;;;4923191;29;20446;-71
2023/12/30 08:50:48;;;;;;;9.10;2.13;;;;;;;;;;4921713;29;20047;-69
2023/12/30 08:53:15;;;;;;;10.00;2.00;;;;;;;;;;4918472;29;20055;-69
2023/12/30 08:55:41;;;;;;;9.77;1.85;;;;;;;;;;4938479;28;20043;-70
2023/12/30 08:58:07;;;;;;;10.02;2.38;;;;;;;;;;4921421;28;20051;-69
2023/12/30 09:00:34;;;;;;;8.60;2.50;;;;;;;;;;4936297;29;20049;-70
2023/12/30 09:03:00;;;;;;;9.30;2.08;;;;;;;;;;4917843;29;20055;-70
2023/12/30 09:05:26;;;;;;;10.88;2.50;;;;;;;;;;4925055;29;20043;-71
2023/12/30 09:07:52;;;;;;;7.38;2.35;;;;;;;;;;4924666;29;20050;-72
2023/12/30 09:10:19;;;;;;;8.32;3.00;;;;;;;;;;4906113;28;20840;-70
2023/12/30 09:12:45;;;;;;;14.48;2.75;;;;;;;;;;4940721;29;20153;-70
2023/12/30 09:15:11;;;;;;;4.82;2.00;;;;;;;;;;4924261;29;20114;-71
2023/12/30 09:17:38;;;;;;;8.90;2.08;;;;;;;;;;4922598;29;20050;-71
2023/12/30 09:20:04;;;;;;;12.35;2.35;;;;;;;;;;4927855;29;20126;-69
2023/12/30 09:22:30;;;;;;;8.20;2.13;;;;;;;;;;4906820;29;20046;-71
2023/12/30 09:24:56;;;;;;;12.40;2.10;;;;;;;;;;4943669;29;20086;-71
2023/12/30 09:27:23;;;;;;;10.57;3.10;;;;;;;;;;4938008;28;20075;-73
2023/12/30 09:29:50;;;;;;;15.10;2.47;;;;;;;;;;4923766;28;20043;-74
2023/12/30 09:32:16;;;;;;;7.63;2.05;;;;;;;;;;4948265;28;20908;-73
2023/12/30 09:34:42;;;;;;;10.60;2.38;;;;;;;;;;4943626;28;20054;-72
2023/12/30 09:37:08;;;;;;;6.05;1.70;;;;;;;;;;4922484;29;20047;-72
2023/12/30 09:39:34;;;;;;;9.35;2.17;;;;;;;;;;4919315;29;20442;-74
2023/12/30 09:42:00;;;;;;;7.78;2.28;;;;;;;;;;4920287;29;20055;-71
2023/12/30 09:44:26;;;;;;;14.18;2.13;;;;;;;;;;4919491;29;20074;-71
2023/12/30 09:46:56;;;;;;;11.00;2.72;;;;;;;;;;4934736;29;20111;-72
2023/12/30 09:49:23;;;;;;;9.90;2.40;;;;;;;;;;4936973;28;20050;-72
2023/12/30 09:51:49;;;;;;;13.70;2.75;;;;;;;;;;4898371;29;20639;-72
2023/12/30 09:54:15;;;;;;;10.52;2.20;;;;;;;;;;4926499;29;20043;-73
2023/12/30 09:56:44;;;;;;;8.68;2.50;;;;;;;;;;4913092;29;20079;-71
2023/12/30 09:59:10;;;;;;;8.32;2.70;;;;;;;;;;4921941;28;20057;-72
2023/12/30 10:01:36;;;;;;;10.55;2.53;;;;;;;;;;4923955;29;20051;-73
2023/12/30 10:04:03;;;;;;;13.48;2.35;;;;;;;;;;4909889;29;20051;-72
2023/12/30 10:06:30;;;;;;;10.18;2.33;;;;;;;;;;4920188;29;20047;-72
2023/12/30 10:08:56;;;;;;;6.80;2.38;;;;;;;;;;4922108;29;20078;-72
2023/12/30 10:11:22;;;;;;;9.18;2.42;;;;;;;;;;4939084;28;20150;-72
2023/12/30 10:13:48;;;;;;;11.25;2.25;;;;;;;;;;4920523;29;20367;-71
2023/12/30 10:16:15;;;;;;;9.90;3.15;;;;;;;;;;4935974;29;20086;-71
2023/12/30 10:18:41;;;;;;;8.25;2.28;;;;;;;;;;4920426;28;20045;-71
2023/12/30 10:21:07;;;;;;;6.53;2.05;;;;;;;;;;4937389;29;20035;-71
2023/12/30 10:23:34;;;;;;;7.90;2.28;;;;;;;;;;4898860;29;20120;-70
2023/12/30 10:26:01;;;;;;;9.30;3.33;;;;;;;;;;4899867;28;20047;-71
2023/12/30 10:28:27;;;;;;;6.53;2.08;;;;;;;;;;4913885;29;20077;-70
2023/12/30 10:31:06;;;;;;;8.00;3.15;;;;;;;;;;4935904;29;20590;-72
2023/12/30 10:33:34;;;;;;;10.23;2.97;;;;;;;;;;4920697;29;20361;-71
2023/12/30 10:36:00;;;;;;;9.75;2.22;;;;;;;;;;4925440;28;20526;-72
2023/12/30 10:38:27;;;;;;;10.07;2.28;;;;;;;;;;4911822;29;20047;-71
2023/12/30 10:40:53;;;;;;;9.57;1.80;;;;;;;;;;4925983;28;20055;-72
2023/12/30 10:43:19;;;;;;;9.70;1.95;;;;;;;;;;4920310;29;20062;-71
2023/12/30 10:45:59;;;;;;;8.45;2.17;;;;;;;;;;4915548;29;20054;-70
2023/12/30 10:48:31;;;;;;;8.60;2.28;;;;;;;;;;4935544;28;20062;-71
2023/12/30 10:50:58;;;;;;;10.40;2.25;;;;;;;;;;4920302;29;20500;-71
2023/12/30 10:53:27;;;;;;;7.72;2.90;;;;;;;;;;4905247;29;20058;-71
2023/12/30 10:55:55;;;;;;;6.80;1.67;;;;;;;;;;4923409;29;20102;-71
2023/12/30 10:58:25;;;;;;;10.48;2.33;;;;;;;;;;4908659;29;20051;-71
2023/12/30 11:00:57;;;;;;;12.90;2.13;;;;;;;;;;4929677;29;20054;-71
2023/12/30 11:03:23;;;;;;;9.02;1.85;;;;;;;;;;4926796;29;20059;-71
2023/12/30 11:06:08;;;;;;;14.32;2.15;;;;;;;;;;4944941;28;20147;-71
2023/12/30 11:08:35;;;;;;;9.45;2.63;;;;;;;;;;4925947;29;20050;-71
2023/12/30 11:11:04;;;;;;;10.50;2.25;;;;;;;;;;4942585;29;20051;-70
2023/12/30 11:13:37;;;;;;;13.77;2.22;;;;;;;;;;4908980;29;20058;-70
2023/12/30 11:16:16;;;;;;;9.23;2.22;;;;;;;;;;4932444;28;20079;-72
2023/12/30 11:18:57;;;;;;;12.88;3.13;;;;;;;;;;4926689;29;20074;-71
2023/12/30 11:21:37;;;;;;;8.13;2.42;;;;;;;;;;4926253;29;20047;-72
2023/12/30 11:24:10;;;;;;;11.35;2.65;;;;;;;;;;4911318;29;20077;-72
2023/12/30 11:26:40;;;;;;;8.48;2.20;;;;;;;;;;4939077;29;20050;-71
2023/12/30 11:29:14;;;;;;;8.38;2.45;;;;;;;;;;4909957;29;20047;-71
2023/12/30 11:31:41;;;;;;;7.25;2.75;;;;;;;;;;4947143;28;20062;-71
2023/12/30 11:34:09;;;;;;;8.32;2.72;;;;;;;;;;4941488;29;20065;-71
2023/12/30 11:36:36;;;;;;;12.93;2.40;;;;;;;;;;4924398;29;20079;-71
2023/12/30 11:39:03;;;;;;;6.50;2.38;;;;;;;;;;4940616;29;20051;-71
2023/12/30 11:41:30;;;;;;;12.20;2.10;;;;;;;;;;4916953;29;20046;-73
2023/12/30 11:43:57;;;;;;;10.18;2.30;;;;;;;;;;4925691;29;20047;-72
2023/12/30 11:46:23;;;;;;;8.45;2.22;;;;;;;;;;4937326;28;20066;-72
2023/12/30 11:48:49;;;;;;;8.75;2.75;;;;;;;;;;4908480;29;20217;-73
2023/12/30 11:51:26;;;;;;;10.98;2.35;;;;;;;;;;4927206;28;20081;-71
2023/12/30 11:53:52;;;;;;;7.78;2.25;;;;;;;;;;4930134;29;20043;-71
2023/12/30 11:56:19;;;;;;;13.18;2.53;;;;;;;;;;4940481;28;20043;-71
2023/12/30 11:58:47;;;;;;;8.20;2.40;;;;;;;;;;4919105;29;20102;-72
2023/12/30 12:01:13;;;;;;;11.27;2.65;;;;;;;;;;4904317;29;20074;-73
2023/12/30 12:03:40;;;;;;;5.30;2.10;;;;;;;;;;4903629;29;20047;-73
2023/12/30 12:06:07;;;;;;;6.00;1.88;;;;;;;;;;4902438;29;20044;-71
2023/12/30 12:08:33;;;;;;;9.15;2.50;;;;;;;;;;4918644;29;20047;-72
2023/12/30 12:10:59;;;;;;;7.93;1.67;;;;;;;;;;4909452;29;20123;-72
2023/12/30 12:13:26;;;;;;;11.98;2.17;;;;;;;;;;4927821;29;20427;-72
2023/12/30 12:15:59;;;;;;;7.10;2.30;;;;;;;;;;4905257;29;20046;-73
2023/12/30 12:19:07;;;;;;;12.02;2.72;;;;;;;;;;4915265;29;20047;-74
2023/12/30 12:21:36;;;;;;;8.05;2.20;;;;;;;;;;4944647;28;20039;-72
2023/12/30 12:24:03;;;;;;;15.50;2.90;;;;;;;;;;4918348;29;20916;-71
2023/12/30 12:26:31;;;;;;;8.90;2.15;;;;;;;;;;4917651;29;20183;-72
2023/12/30 12:29:03;;;;;;;8.65;2.33;;;;;;;;;;4901442;29;20043;-74
2023/12/30 12:31:35;;;;;;;9.00;2.67;;;;;;;;;;4912348;29;20044;-73
2023/12/30 12:34:19;;;;;;;9.75;2.38;;;;;;;;;;4902232;29;20088;-73
2023/12/30 12:36:45;;;;;;;13.80;2.30;;;;;;;;;;4935054;29;20059;-73
2023/12/30 12:39:12;;;;;;;9.82;2.90;;;;;;;;;;4902729;29;20827;-73
2023/12/30 12:41:38;;;;;;;10.25;2.92;;;;;;;;;;4902601;29;20146;-73
2023/12/30 12:44:04;;;;;;;13.00;2.50;;;;;;;;;;4895532;29;20054;-72
2023/12/30 12:46:30;;;;;;;10.95;2.33;;;;;;;;;;4899696;29;20065;-72
2023/12/30 12:48:59;;;;;;;8.13;2.35;;;;;;;;;;4918304;29;20047;-71
2023/12/30 12:51:25;;;;;;;12.40;3.08;;;;;;;;;;4908394;29;20079;-72
2023/12/30 12:53:51;;;;;;;9.77;2.25;;;;;;;;;;4921776;29;20054;-72
2023/12/30 12:56:18;;;;;;;16.58;4.18;;;;;;;;;;4921212;29;20059;-72
2023/12/30 12:58:44;;;;;;;12.48;2.67;;;;;;;;;;4920045;29;20051;-72
2023/12/30 13:01:10;;;;;;;16.20;3.67;;;;;;;;;;4917839;29;20106;-71
2023/12/30 13:03:37;;;;;;;18.45;2.80;;;;;;;;;;4920393;29;20899;-72
2023/12/30 13:06:12;;;;;;;12.82;2.80;;;;;;;;;;4904631;29;20889;-72
2023/12/30 13:08:38;;;;;;;11.90;2.72;;;;;;;;;;4903028;29;20051;-71
2023/12/30 13:11:04;;;;;;;11.75;2.40;;;;;;;;;;4935432;28;20088;-71
2023/12/30 13:13:30;;;;;;;13.60;2.92;;;;;;;;;;4916313;29;20051;-71
2023/12/30 13:16:00;;;;;;;16.30;3.65;;;;;;;;;;4915833;29;20050;-71
2023/12/30 13:18:27;;;;;;;9.65;3.22;;;;;;;;;;4910596;29;20131;-73
2023/12/30 13:20:55;;;;;;;14.70;3.78;;;;;;;;;;4911899;29;20078;-73
2023/12/30 13:23:27;;;;;;;13.88;2.90;;;;;;;;;;4922105;29;20054;-75
2023/12/30 13:25:56;;;;;;;;;;;;;;;;;;4904829;29;20038;-73
2023/12/30 13:28:22;;;;;;;11.15;3.33;;;;;;;;;;4907400;29;19922;-72
2023/12/30 13:30:48;;;;;;;10.15;3.15;;;;;;;;;;4918546;29;20045;-73
2023/12/30 13:33:20;;;;;;;13.25;3.33;;;;;;;;;;4922528;29;20142;-73
2023/12/30 13:35:46;;;;;;;14.70;2.90;;;;;;;;;;4922244;29;20055;-74
2023/12/30 13:38:13;;;;;;;9.98;2.70;;;;;;;;;;4923813;29;20106;-71
2023/12/30 13:40:42;;;;;;;16.27;3.63;;;;;;;;;;4921341;29;20055;-71
2023/12/30 13:43:11;;;;;;;18.73;4.05;;;;;;;;;;4938534;28;20047;-72
2023/12/30 13:45:41;;;;;;;12.48;2.92;;;;;;;;;;4921896;29;20045;-70
2023/12/30 13:48:24;;;;;;;9.35;2.35;;;;;;;;;;4940315;28;20043;-71
2023/12/30 13:50:54;;;;;;;20.15;3.72;;;;;;;;;;4921558;29;20078;-71
2023/12/30 13:53:21;;;;;;;12.60;3.40;;;;;;;;;;4940950;29;20604;-72
2023/12/30 13:55:47;;;;;;;11.95;3.22;;;;;;;;;;4909631;29;20055;-73
2023/12/30 13:58:13;;;;;;;15.88;4.00;;;;;;;;;;4907184;29;20057;-73
2023/12/30 14:00:42;;;;;;;13.73;3.10;;;;;;;;;;4922201;29;20069;-72
2023/12/30 14:03:08;;;;;;;18.33;4.28;;;;;;;;;;4917261;29;20169;-71
2023/12/30 14:05:40;;;;;;;16.58;4.22;;;;;;;;;;4923071;29;20090;-72
2023/12/30 14:10:53;;;;;;;22.42;6.57;;;;;;;;;;4921525;29;20043;-71
2023/12/30 14:13:22;;;;;;;25.52;4.03;;;;;;;;;;4923619;29;20061;-72
2023/12/30 14:15:49;;;;;;;17.05;3.33;;;;;;;;;;4918186;29;20831;-72
2023/12/30 14:18:18;;;;;;;21.05;3.83;;;;;;;;;;4921161;29;20055;-72
2023/12/30 14:20:46;;;;;;;15.57;4.43;;;;;;;;;;4908278;29;20047;-72
2023/12/30 14:23:12;;;;;;;20.02;4.35;;;;;;;;;;4906542;29;20047;-74
2023/12/30 14:25:38;;;;;;;11.00;3.50;;;;;;;;;;4934689;29;20046;-73
2023/12/30 14:28:05;;;;;;;17.40;4.50;;;;;;;;;;4923239;29;20049;-72
2023/12/30 14:30:35;;;;;;;17.67;4.70;;;;;;;;;;4938298;29;20043;-72
2023/12/30 14:33:01;;;;;;;22.05;5.07;;;;;;;;;;4940521;29;20211;-75
2023/12/30 14:35:27;;;;;;;22.63;5.45;;;;;;;;;;4921146;29;20050;-73
2023/12/30 14:37:53;;;;;;;14.07;4.40;;;;;;;;;;4915586;29;20586;-71